Time;durP1;ratioP1;P1;durP2;ratioP2;P2;SDS_P1;SDS_P2;PMS_P1;PMS_P2;Temp;Humidity;BMP_temperature;BMP_pressure;BME280_temperature;BME280_humidity;BME280_pressure;Samples;Min_cycle;Max_cycle;Signal;HPM_P1;HPM_P2
2022/07/02 00:02:59;;;;;;;13.65;4.70;;;;;;;17.79;57.00;100245.53;1769818;81;21224;-80
2022/07/02 00:06:08;;;;;;;9.98;5.30;;;;;;;17.78;56.81;100256.27;1769968;81;21228;-80
2022/07/02 00:09:13;;;;;;;9.78;4.83;;;;;;;17.76;56.67;100256.50;1769293;81;21256;-80
2022/07/02 00:12:19;;;;;;;11.48;5.03;;;;;;;17.72;56.29;100257.14;1775864;81;21180;-80
2022/07/02 00:15:25;;;;;;;15.55;5.22;;;;;;;17.70;55.72;100266.20;1774524;79;21208;-80
2022/07/02 00:18:30;;;;;;;10.25;5.92;;;;;;;17.67;55.07;100271.64;1775936;81;21228;-80
2022/07/02 00:21:39;;;;;;;18.48;5.75;;;;;;;17.66;54.82;100270.48;1775970;81;21228;-80
2022/07/02 00:24:43;;;;;;;13.78;5.40;;;;;;;17.63;54.75;100277.30;1775402;81;21204;-80
2022/07/02 00:27:50;;;;;;;17.77;4.60;;;;;;;17.59;54.60;100271.90;1775688;81;21232;-80
2022/07/02 00:30:56;;;;;;;12.73;5.85;;;;;;;17.55;54.26;100268.75;1775550;79;21188;-80
2022/07/02 00:34:02;;;;;;;12.07;5.75;;;;;;;17.52;54.23;100274.72;1736204;82;21193;-80
2022/07/02 00:37:10;;;;;;;16.90;5.92;;;;;;;17.49;53.98;100276.54;1735865;82;21220;-81
2022/07/02 00:40:15;;;;;;;16.93;5.65;;;;;;;17.45;53.75;100279.97;1736188;82;21233;-81
2022/07/02 00:43:22;;;;;;;11.60;5.35;;;;;;;17.39;53.77;100277.56;1736451;82;21192;-80
2022/07/02 00:46:28;;;;;;;14.00;5.22;;;;;;;17.33;53.89;100274.31;1729393;82;21752;-80
2022/07/02 00:49:34;;;;;;;12.63;5.10;;;;;;;17.27;54.09;100273.82;1709277;84;21225;-81
2022/07/02 00:52:40;;;;;;;17.62;5.83;;;;;;;17.24;54.20;100272.88;1727786;83;21703;-81
2022/07/02 00:55:40;;;;;;;14.65;5.58;;;;;;;17.18;54.08;100283.44;1707639;84;21284;-81
2022/07/02 00:58:33;;;;;;;11.85;6.70;;;;;;;17.11;54.10;100284.30;1727423;83;21272;-81
2022/07/02 01:01:20;;;;;;;13.88;5.72;;;;;;;17.03;54.09;100281.80;1733781;82;21185;-81
2022/07/02 01:04:13;;;;;;;14.55;5.78;;;;;;;16.96;54.04;100287.87;1767605;81;21177;-81
2022/07/02 01:07:08;;;;;;;18.20;6.62;;;;;;;16.91;54.08;100289.06;1767295;81;21740;-80
2022/07/02 01:10:19;;;;;;;12.53;6.03;;;;;;;16.87;54.05;100291.95;1766889;81;21201;-80
2022/07/02 01:13:25;;;;;;;17.52;6.05;;;;;;;16.84;54.12;100302.04;1801708;79;21173;-81
2022/07/02 01:16:32;;;;;;;15.32;6.12;;;;;;;16.80;54.23;100302.19;1789390;79;21190;-81
2022/07/02 01:19:38;;;;;;;23.60;5.55;;;;;;;16.75;54.25;100305.59;1784572;80;21189;-80
2022/07/02 01:22:48;;;;;;;13.98;5.03;;;;;;;16.69;54.38;100305.56;1785930;80;21209;-81
2022/07/02 01:25:58;;;;;;;15.50;6.08;;;;;;;16.65;54.35;100319.48;1785723;80;21142;-80
2022/07/02 01:29:04;;;;;;;11.28;5.10;;;;;;;16.61;54.18;100329.60;1786358;80;21165;-81
2022/07/02 01:32:10;;;;;;;11.10;5.78;;;;;;;16.58;54.05;100325.88;1770125;79;21737;-81
2022/07/02 01:35:16;;;;;;;11.28;6.45;;;;;;;16.56;53.96;100332.16;1770021;81;21185;-81
2022/07/02 01:38:22;;;;;;;19.45;6.45;;;;;;;16.55;54.00;100337.34;1769448;81;21260;-81
2022/07/02 01:41:40;;;;;;;14.38;6.33;;;;;;;16.53;54.18;100335.34;1769835;81;21185;-81
2022/07/02 01:44:46;;;;;;;20.05;6.17;;;;;;;16.49;54.60;100341.50;1768559;80;21209;-80
2022/07/02 01:47:53;;;;;;;15.00;6.12;;;;;;;16.40;55.02;100346.39;1784303;80;21573;-80
2022/07/02 01:50:57;;;;;;;16.20;7.15;;;;;;;16.34;55.59;100345.34;1785828;80;21182;-80
2022/07/02 01:54:03;;;;;;;17.00;6.58;;;;;;;16.29;55.79;100356.70;1785116;80;21841;-80
2022/07/02 01:57:08;;;;;;;13.35;6.60;;;;;;;16.22;55.84;100350.33;1784432;80;21198;-80
2022/07/02 02:00:16;;;;;;;13.22;6.37;;;;;;;16.20;55.50;100357.45;1789109;79;21334;-80
2022/07/02 02:03:21;;;;;;;11.55;6.15;;;;;;;16.32;54.88;100357.64;1802431;79;21220;-80
2022/07/02 02:06:27;;;;;;;18.87;6.47;;;;;;;16.60;54.09;100357.41;1802145;79;21189;-81
2022/07/02 02:09:34;;;;;;;11.05;6.10;;;;;;;16.93;53.22;100361.52;1801444;78;21212;-80
2022/07/02 02:12:42;;;;;;;12.82;6.90;;;;;;;17.25;51.96;100366.63;1800814;79;21370;-80
2022/07/02 02:15:49;;;;;;;17.48;6.12;;;;;;;17.50;51.32;100370.89;1802701;79;21419;-80
2022/07/02 02:18:56;;;;;;;14.70;5.87;;;;;;;17.72;50.56;100379.69;1802798;79;21192;-80
2022/07/02 02:22:03;;;;;;;15.55;5.95;;;;;;;17.86;49.92;100384.65;1786124;79;21744;-80
2022/07/02 02:25:09;;;;;;;18.57;6.97;;;;;;;17.96;49.07;100389.69;1801651;79;21228;-80
2022/07/02 02:28:15;;;;;;;23.55;8.23;;;;;;;18.10;48.61;100390.77;1802613;79;21780;-80
2022/07/02 02:31:20;;;;;;;27.02;8.38;;;;;;;18.28;47.86;100396.07;1802476;79;22063;-80
2022/07/02 02:34:26;;;;;;;13.85;5.87;;;;;;;18.40;46.88;100402.59;1802744;79;21742;-80
2022/07/02 02:37:32;;;;;;;13.55;4.60;;;;;;;18.64;45.91;100411.43;1801890;79;21213;-80
2022/07/02 02:40:38;;;;;;;7.83;4.90;;;;;;;18.99;44.49;100421.15;1801277;79;21212;-80
2022/07/02 02:43:44;;;;;;;11.45;4.42;;;;;;;19.24;43.51;100421.08;1802494;79;21161;-80
2022/07/02 02:46:51;;;;;;;22.37;5.22;;;;;;;19.44;42.80;100431.42;1802411;79;21165;-80
2022/07/02 02:49:58;;;;;;;11.70;4.42;;;;;;;19.61;42.31;100424.19;1802753;79;21161;-80
2022/07/02 02:53:03;;;;;;;13.85;4.92;;;;;;;19.86;41.52;100428.80;1802773;79;21166;-80
2022/07/02 02:56:08;;;;;;;16.15;4.87;;;;;;;19.97;41.20;100434.92;1801206;78;21214;-80
2022/07/02 02:59:14;;;;;;;15.18;5.53;;;;;;;20.05;41.21;100442.09;1801838;79;21208;-80
2022/07/02 03:02:19;;;;;;;12.07;4.55;;;;;;;20.20;40.58;100442.50;1802814;79;21142;-80
2022/07/02 03:05:25;;;;;;;9.90;4.53;;;;;;;20.29;40.18;100445.80;1802746;79;21165;-80
2022/07/02 03:08:32;;;;;;;15.78;4.50;;;;;;;20.33;39.73;100444.23;1801492;79;21184;-80
2022/07/02 03:11:38;;;;;;;12.78;3.77;;;;;;;20.26;39.08;100451.27;1802870;79;21196;-80
2022/07/02 03:14:43;;;;;;;11.75;3.98;;;;;;;20.21;39.14;100455.84;1794616;79;21272;-80
2022/07/02 03:17:49;;;;;;;11.43;3.33;;;;;;;20.09;38.33;100458.05;1793871;80;21260;-80
2022/07/02 03:20:55;;;;;;;8.60;3.17;;;;;;;19.97;38.24;100469.62;1793950;80;21182;-80
2022/07/02 03:23:55;;;;;;;13.28;3.92;;;;;;;19.86;38.08;100455.16;1793968;80;21189;-80
2022/07/02 03:27:00;;;;;;;12.45;3.60;;;;;;;19.84;38.02;100467.86;1795364;80;21740;-80
2022/07/02 03:30:03;;;;;;;11.65;3.67;;;;;;;19.78;38.27;100470.20;1795380;80;21173;-80
2022/07/02 03:32:55;;;;;;;12.78;3.70;;;;;;;19.78;37.57;100475.75;1795326;80;21180;-80
2022/07/02 03:35:41;;;;;;;8.03;2.77;;;;;;;19.65;38.07;100480.91;1795417;80;21173;-80
2022/07/02 03:38:35;;;;;;;9.10;2.72;;;;;;;19.66;37.83;100488.15;1794222;80;21209;-80
2022/07/02 03:41:41;;;;;;;7.25;3.10;;;;;;;19.72;37.73;100491.11;1794060;80;21209;-80
2022/07/02 03:44:48;;;;;;;9.35;3.12;;;;;;;19.73;36.41;100497.80;1795373;80;21174;-80
2022/07/02 03:47:56;;;;;;;10.08;3.08;;;;;;;19.71;36.41;100496.32;1793890;80;21782;-80
2022/07/02 03:51:01;;;;;;;8.40;3.40;;;;;;;19.85;35.30;100487.59;1795238;80;21178;-80
2022/07/02 03:54:07;;;;;;;15.48;3.50;;;;;;;19.79;35.51;100497.41;1795269;80;21213;-80
2022/07/02 03:57:12;;;;;;;9.28;2.72;;;;;;;19.65;35.84;100496.72;1793654;80;21740;-80
2022/07/02 04:00:20;;;;;;;8.53;3.08;;;;;;;19.61;35.49;100494.94;1795191;80;21479;-80
2022/07/02 04:03:25;;;;;;;9.28;3.20;;;;;;;19.51;35.55;100496.52;1795293;80;22473;-80
2022/07/02 04:06:33;;;;;;;14.23;2.62;;;;;;;19.51;35.95;100498.76;1795268;80;21831;-80
2022/07/02 04:09:39;;;;;;;15.68;2.90;;;;;;;19.53;35.42;100502.70;1793905;80;21228;-80
2022/07/02 04:12:46;;;;;;;5.12;2.70;;;;;;;19.42;35.64;100495.98;1795374;80;21866;-80
2022/07/02 04:15:55;;;;;;;9.23;2.30;;;;;;;19.28;35.58;100499.97;1806621;79;21326;-80
2022/07/02 04:19:01;;;;;;;8.10;2.50;;;;;;;19.02;35.72;100504.70;1810573;79;21213;-80
2022/07/02 04:22:07;;;;;;;12.45;2.67;;;;;;;18.84;36.57;100510.19;1811886;79;21185;-80
2022/07/02 04:25:13;;;;;;;7.72;2.42;;;;;;;18.71;36.47;100503.36;1811479;79;21172;-80
2022/07/02 04:28:18;;;;;;;11.00;2.20;;;;;;;18.59;36.93;100501.30;1811093;79;21169;-80
2022/07/02 04:31:25;;;;;;;5.55;2.50;;;;;;;18.54;37.47;100511.36;1811660;79;21232;-80
2022/07/02 04:34:33;;;;;;;5.50;2.10;;;;;;;18.68;37.58;100507.41;1811420;79;21177;-80
2022/07/02 04:37:38;;;;;;;6.00;2.77;;;;;;;18.80;37.54;100511.17;1811456;79;21164;-80
2022/07/02 04:40:44;;;;;;;3.30;1.90;;;;;;;18.90;37.30;100508.73;1809989;79;21256;-80
2022/07/02 04:43:50;;;;;;;9.00;2.10;;;;;;;19.06;37.19;100522.59;1811433;79;21184;-80
2022/07/02 04:46:55;;;;;;;15.98;2.30;;;;;;;19.15;36.27;100529.54;1811408;79;21220;-80
2022/07/02 04:50:00;;;;;;;4.50;2.00;;;;;;;19.12;36.21;100540.23;1771057;81;21803;-80
2022/07/02 04:53:06;;;;;;;4.78;2.02;;;;;;;19.11;35.96;100522.75;1780329;79;21168;-80
2022/07/02 04:56:11;;;;;;;8.33;1.90;;;;;;;19.17;36.70;100523.76;1778488;80;21221;-80
2022/07/02 04:59:16;;;;;;;9.23;2.40;;;;;;;19.29;37.23;100521.06;1777404;80;21245;-80
2022/07/02 05:02:23;;;;;;;9.08;2.40;;;;;;;19.48;36.67;100528.37;1778563;80;21233;-80
2022/07/02 05:05:28;;;;;;;16.32;3.08;;;;;;;19.57;36.39;100528.37;1777238;80;21166;-80
2022/07/02 05:08:33;;;;;;;11.38;2.50;;;;;;;19.69;35.90;100539.58;1777773;80;21167;-80
2022/07/02 05:11:39;;;;;;;6.67;2.35;;;;;;;19.66;35.65;100534.47;1779223;80;21233;-79
2022/07/02 05:14:44;;;;;;;7.35;2.92;;;;;;;19.61;35.81;100539.88;1779707;80;21183;-80
2022/07/02 05:17:50;;;;;;;8.13;3.05;;;;;;;19.66;35.96;100537.25;1745888;82;21811;-80
2022/07/02 05:20:56;;;;;;;7.87;2.72;;;;;;;19.66;35.53;100542.26;1745831;82;21218;-80
2022/07/02 05:24:02;;;;;;;8.80;2.50;;;;;;;19.73;35.49;100554.69;1745752;82;21220;-80
2022/07/02 05:27:08;;;;;;;10.45;3.47;;;;;;;19.74;35.68;100543.89;1745274;82;21790;-80
2022/07/02 05:30:16;;;;;;;7.97;3.02;;;;;;;19.85;35.40;100550.59;1744563;82;21208;-80
2022/07/02 05:33:21;;;;;;;7.80;2.27;;;;;;;19.98;34.64;100555.14;1745843;82;21267;-80
2022/07/02 05:36:26;;;;;;;3.20;1.87;;;;;;;19.96;34.22;100545.67;1745938;82;21791;-80
2022/07/02 05:39:32;;;;;;;6.05;2.60;;;;;;;19.95;34.90;100548.66;1745439;82;21827;-80
2022/07/02 05:42:37;;;;;;;4.95;1.95;;;;;;;19.96;34.53;100565.11;1745260;82;21219;-80
2022/07/02 05:45:44;;;;;;;3.52;2.33;;;;;;;19.88;34.75;100548.75;1745805;82;21184;-80
2022/07/02 05:48:49;;;;;;;11.38;2.20;;;;;;;19.85;34.88;100548.66;1745793;82;21238;-80
2022/07/02 05:51:57;;;;;;;5.50;2.15;;;;;;;19.89;35.29;100547.66;1745781;82;21187;-80
2022/07/02 05:54:49;;;;;;;2.83;1.70;;;;;;;19.99;35.61;100538.24;1745909;82;21247;-80
2022/07/02 05:57:55;;;;;;;4.17;1.98;;;;;;;20.16;34.49;100532.37;1745508;82;21200;-80
2022/07/02 06:00:59;;;;;;;4.00;2.25;;;;;;;20.29;34.37;100538.30;1743326;82;21227;-80
2022/07/02 06:04:07;;;;;;;4.58;1.65;;;;;;;20.34;34.21;100518.15;1744421;82;21324;-80
2022/07/02 06:10:45;;;;;;;7.60;2.02;;;;;;;20.53;34.08;100525.37;1744561;82;21180;-81
2022/07/02 06:13:50;;;;;;;6.62;1.77;;;;;;;20.66;33.76;100521.01;1744807;82;21786;-81
2022/07/02 06:16:56;;;;;;;5.92;2.10;;;;;;;20.68;33.84;100520.22;1753676;81;21280;-81
2022/07/02 06:20:04;;;;;;;6.62;2.98;;;;;;;20.75;34.16;100527.08;1770394;81;21935;-81
2022/07/02 06:23:12;;;;;;;10.58;2.55;;;;;;;20.97;33.61;100533.45;1770233;81;21197;-81
2022/07/02 06:26:18;;;;;;;2.30;1.52;;;;;;;21.02;32.96;100534.42;1770025;81;21202;-82
2022/07/02 06:29:25;;;;;;;4.15;2.27;;;;;;;21.00;32.87;100531.59;1768796;81;21773;-81
2022/07/02 06:32:31;;;;;;;5.35;2.10;;;;;;;21.08;33.07;100534.88;1770253;81;21178;-81
2022/07/02 06:35:37;;;;;;;8.90;2.02;;;;;;;21.14;32.78;100539.46;1770467;81;21725;-80
2022/07/02 06:38:43;;;;;;;14.98;2.58;;;;;;;21.24;32.66;100533.84;1771108;81;21194;-80
2022/07/02 06:45:12;;;;;;;6.40;2.40;;;;;;;21.40;32.61;100535.37;1771032;81;21182;-81
2022/07/02 06:48:18;;;;;;;8.43;1.90;;;;;;;21.41;32.43;100548.23;1771071;81;21171;-81
2022/07/02 06:51:23;;;;;;;3.17;1.87;;;;;;;21.47;31.98;100536.66;1770028;81;21237;-80
2022/07/02 06:54:30;;;;;;;5.08;2.02;;;;;;;21.54;31.98;100530.41;1771131;81;21194;-80
2022/07/02 06:57:29;;;;;;;;;;;;;;;21.51;32.11;100526.75;1773660;81;21170;-80
2022/07/02 07:00:34;;;;;;;9.15;2.12;;;;;;;21.49;31.71;100523.34;1770373;81;20254;-80
2022/07/02 07:03:40;;;;;;;10.45;2.52;;;;;;;21.48;31.18;100529.16;1771054;81;21230;-80
2022/07/02 07:09:50;;;;;;;5.62;3.05;;;;;;;21.48;31.70;100524.44;1771091;81;21209;-80
2022/07/02 07:12:56;;;;;;;8.75;3.98;;;;;;;21.50;31.87;100523.67;1771080;81;21229;-80
2022/07/02 07:16:02;;;;;;;8.15;3.80;;;;;;;21.55;31.19;100540.48;1770889;81;21186;-80
2022/07/02 07:19:08;;;;;;;9.08;3.58;;;;;;;21.51;31.42;100526.75;1757020;80;21219;-80
2022/07/02 07:22:14;;;;;;;6.08;3.47;;;;;;;21.51;31.60;100518.39;1751905;82;21196;-80
2022/07/02 07:25:19;;;;;;;6.75;3.83;;;;;;;21.60;31.86;100519.72;1753073;82;21179;-80
2022/07/02 07:28:19;;;;;;;5.87;3.10;;;;;;;21.68;31.50;100528.22;1753321;82;21295;-81
2022/07/02 07:31:25;;;;;;;16.50;4.00;;;;;;;21.65;31.33;100535.69;1752680;82;21184;-81
2022/07/02 07:34:31;;;;;;;9.95;3.47;;;;;;;21.59;31.59;100543.59;1753201;82;21736;-80
2022/07/02 07:37:37;;;;;;;7.28;3.45;;;;;;;21.60;32.00;100539.75;1753221;82;21188;-81
2022/07/02 07:40:47;;;;;;;9.73;3.70;;;;;;;21.69;31.86;100536.34;1752753;82;21374;-80
2022/07/02 07:43:53;;;;;;;6.28;2.60;;;;;;;21.92;30.93;100538.25;1753451;82;21631;-80
2022/07/02 07:46:58;;;;;;;7.10;2.67;;;;;;;22.13;30.51;100542.33;1751826;82;21778;-80
2022/07/02 07:50:05;;;;;;;12.00;2.70;;;;;;;22.22;29.97;100534.43;1753210;82;21180;-80
2022/07/02 07:53:11;;;;;;;6.20;2.20;;;;;;;22.26;29.78;100537.58;1790226;79;21170;-81
2022/07/02 07:56:17;;;;;;;5.30;2.72;;;;;;;22.18;29.87;100536.86;1782370;79;21180;-82
2022/07/02 07:59:25;;;;;;;5.95;1.85;;;;;;;22.12;30.57;100543.98;1799432;79;21227;-80
2022/07/02 08:02:32;;;;;;;2.55;1.72;;;;;;;22.20;31.11;100532.42;1799400;79;21185;-81
2022/07/02 08:05:38;;;;;;;6.50;1.47;;;;;;;22.36;30.20;100522.45;1790569;79;21182;-80
2022/07/02 08:08:47;;;;;;;4.20;1.67;;;;;;;22.44;28.71;100544.31;1769003;81;21185;-81
2022/07/02 08:11:55;;;;;;;8.25;2.00;;;;;;;22.47;28.86;100534.08;1772554;79;21732;-82
2022/07/02 08:15:01;;;;;;;10.05;1.75;;;;;;;22.43;28.32;100535.67;1768884;79;21226;-81
2022/07/02 08:18:23;;;;;;;6.28;1.72;;;;;;;22.38;28.78;100547.56;1798503;79;21145;-81
2022/07/02 08:21:28;;;;;;;6.28;1.55;;;;;;;22.34;29.24;100549.70;1812679;79;21212;-82
2022/07/02 08:24:34;;;;;;;3.90;1.27;;;;;;;22.40;29.02;100543.16;1813533;79;22588;-82
2022/07/02 08:27:42;;;;;;;6.87;1.25;;;;;;;22.50;28.73;100552.26;1812829;79;21517;-81
2022/07/02 08:30:48;;;;;;;4.37;1.45;;;;;;;22.53;28.49;100549.80;1811803;79;21334;-81
2022/07/02 08:33:46;;;;;;;4.47;1.40;;;;;;;22.56;28.62;100552.09;1812836;79;21843;-81
2022/07/02 08:36:40;;;;;;;7.00;1.60;;;;;;;22.50;28.80;100557.83;1774203;81;21169;-82
2022/07/02 08:39:49;;;;;;;2.77;1.55;;;;;;;22.38;28.70;100546.16;1812858;79;21232;-81
2022/07/02 08:42:55;;;;;;;4.70;1.50;;;;;;;22.31;29.35;100554.39;1812498;79;21557;-82
2022/07/02 08:46:04;;;;;;;7.53;1.75;;;;;;;22.39;28.78;100555.37;1788475;79;21196;-82
2022/07/02 08:49:09;;;;;;;3.45;1.45;;;;;;;22.44;28.01;100555.47;1813652;79;21208;-81
2022/07/02 08:52:14;;;;;;;1.82;1.27;;;;;;;22.52;28.46;100551.45;1813163;79;21303;-81
2022/07/02 08:55:21;;;;;;;2.87;1.60;;;;;;;22.61;28.68;100557.76;1813466;79;21169;-81
2022/07/02 08:58:26;;;;;;;7.75;1.52;;;;;;;22.69;28.69;100558.76;1812947;79;21212;-81
2022/07/02 09:01:33;;;;;;;5.17;1.72;;;;;;;22.74;29.17;100567.77;1812818;79;21210;-81
2022/07/02 09:04:38;;;;;;;5.33;1.92;;;;;;;22.68;29.90;100570.17;1813609;79;21228;-81
2022/07/02 09:07:46;;;;;;;11.35;1.87;;;;;;;22.67;29.67;100560.94;1813354;79;21220;-80
2022/07/02 09:10:53;;;;;;;7.50;1.90;;;;;;;22.73;29.16;100549.91;1811933;79;21184;-81
2022/07/02 09:13:57;;;;;;;4.75;1.75;;;;;;;22.80;29.21;100551.42;1811380;79;21177;-80
2022/07/02 09:17:03;;;;;;;9.20;1.80;;;;;;;22.93;29.04;100548.90;1781928;79;21216;-80
2022/07/02 09:20:11;;;;;;;10.48;2.40;;;;;;;23.03;29.12;100547.67;1775638;80;21233;-80
2022/07/02 09:23:20;;;;;;;10.38;1.92;;;;;;;23.03;29.06;100553.81;1768638;81;21220;-80
2022/07/02 09:26:27;;;;;;;12.25;2.42;;;;;;;23.00;29.22;100552.35;1769545;81;21222;-81
2022/07/02 09:29:33;;;;;;;2.45;1.80;;;;;;;22.93;29.85;100560.89;1769789;79;21276;-81
2022/07/02 09:32:47;;;;;;;10.60;1.82;;;;;;;22.86;30.20;100546.77;1771110;79;21236;-81
2022/07/02 09:35:52;;;;;;;5.75;1.75;;;;;;;22.82;30.18;100540.88;1770999;81;21237;-80
2022/07/02 09:39:00;;;;;;;8.60;1.67;;;;;;;22.87;30.42;100549.33;1770424;81;21747;-80
2022/07/02 09:42:06;;;;;;;4.87;1.47;;;;;;;22.88;29.56;100547.39;1780931;78;21237;-80
2022/07/02 09:45:12;;;;;;;5.95;1.85;;;;;;;22.84;30.26;100551.77;1795123;79;21228;-80
2022/07/02 09:48:18;;;;;;;8.35;1.98;;;;;;;22.92;30.04;100541.64;1766985;81;21126;-80
2022/07/02 09:51:23;;;;;;;13.55;2.52;;;;;;;22.97;29.37;100550.09;1772202;79;21228;-80
2022/07/02 09:54:31;;;;;;;8.73;1.90;;;;;;;23.00;29.50;100548.17;1734100;82;21198;-80
2022/07/02 09:57:41;;;;;;;4.30;1.80;;;;;;;23.01;29.43;100548.49;1783970;80;21193;-80
2022/07/02 10:00:53;;;;;;;10.13;1.92;;;;;;;23.03;29.43;100548.23;1785693;80;21249;-80
2022/07/02 10:04:00;;;;;;;2.25;1.50;;;;;;;23.05;29.13;100546.02;1784255;80;22397;-82
2022/07/02 10:07:06;;;;;;;6.75;1.87;;;;;;;23.07;29.26;100534.92;1785137;80;21198;-81
2022/07/02 10:10:12;;;;;;;5.83;1.90;;;;;;;23.09;28.83;100538.28;1786278;80;21146;-81
2022/07/02 10:13:19;;;;;;;2.25;1.57;;;;;;;23.16;28.31;100538.98;1786343;80;21284;-81
2022/07/02 10:16:24;;;;;;;10.58;2.22;;;;;;;23.23;27.75;100529.58;1786585;80;21157;-81
2022/07/02 10:19:30;;;;;;;3.27;1.60;;;;;;;23.27;28.43;100534.95;1786713;80;21150;-80
2022/07/02 10:22:36;;;;;;;8.85;1.55;;;;;;;23.41;28.49;100537.69;1785228;80;21197;-80
2022/07/02 10:25:42;;;;;;;5.60;1.60;;;;;;;23.49;28.16;100530.28;1787136;80;22096;-80
2022/07/02 10:28:49;;;;;;;2.72;1.57;;;;;;;23.56;27.28;100524.50;1787236;80;21158;-80
2022/07/02 10:31:59;;;;;;;5.50;2.05;;;;;;;23.54;26.61;100531.75;1786803;80;21213;-80
2022/07/02 10:35:17;;;;;;;10.48;2.00;;;;;;;23.39;28.74;100523.16;1785731;80;21304;-80
2022/07/02 10:38:24;;;;;;;10.38;2.50;;;;;;;23.39;28.74;100523.16;1786923;80;21738;-80
2022/07/02 10:41:35;;;;;;;8.00;2.10;;;;;;;23.47;28.91;100521.30;1786341;80;21221;-81
2022/07/02 10:44:47;;;;;;;6.00;2.15;;;;;;;23.58;29.49;100505.01;1786149;80;21229;-80
2022/07/02 10:48:11;;;;;;;7.70;2.42;;;;;;;23.63;28.81;100520.44;1785432;80;21522;-80
2022/07/02 10:51:25;;;;;;;7.17;2.27;;;;;;;23.73;29.50;100530.09;1784516;80;21264;-80
2022/07/02 10:54:39;;;;;;;9.18;2.25;;;;;;;23.88;29.74;100534.48;1785142;80;21229;-81
2022/07/02 10:57:48;;;;;;;4.33;2.37;;;;;;;24.02;29.05;100530.75;1786959;80;21213;-80
2022/07/02 11:00:53;;;;;;;11.43;2.60;;;;;;;24.01;29.00;100530.47;1786915;80;21212;-80
2022/07/02 11:04:06;;;;;;;2.85;2.08;;;;;;;24.03;29.07;100547.25;1785724;80;21189;-80
2022/07/02 11:07:15;;;;;;;4.03;2.17;;;;;;;23.96;28.89;100527.05;1787079;80;21142;-81
2022/07/02 11:10:22;;;;;;;11.27;1.97;;;;;;;23.88;29.35;100523.31;1787671;80;21764;-81
2022/07/02 11:13:27;;;;;;;10.38;2.27;;;;;;;23.89;29.41;100523.59;1787003;80;21458;-80
2022/07/02 11:16:40;;;;;;;7.10;2.50;;;;;;;23.90;29.50;100526.67;1787056;80;21166;-80
2022/07/02 11:19:48;;;;;;;3.33;1.80;;;;;;;23.91;28.36;100522.25;1786923;80;21226;-80
2022/07/02 11:22:57;;;;;;;11.53;2.52;;;;;;;23.90;28.37;100519.16;1791496;79;21200;-80
2022/07/02 11:26:03;;;;;;;5.85;2.02;;;;;;;23.92;28.78;100523.09;1797749;80;21208;-80
2022/07/02 11:29:11;;;;;;;3.42;1.98;;;;;;;23.94;28.80;100511.93;1797637;80;21185;-80
2022/07/02 11:32:17;;;;;;;3.47;2.08;;;;;;;23.97;29.50;100506.39;1797755;80;21158;-80
2022/07/02 11:35:25;;;;;;;8.85;1.80;;;;;;;24.05;28.93;100502.30;1797408;80;21343;-77
2022/07/02 11:38:30;;;;;;;7.40;2.08;;;;;;;24.06;27.84;100511.81;1797691;80;21229;-80
2022/07/02 11:41:38;;;;;;;8.93;2.20;;;;;;;24.09;28.73;100511.30;1776710;80;21232;-80
2022/07/02 11:44:45;;;;;;;6.08;1.90;;;;;;;24.13;29.25;100498.47;1796062;80;21347;-80
2022/07/02 11:47:52;;;;;;;6.60;2.30;;;;;;;24.15;29.59;100497.67;1797927;80;21169;-80
2022/07/02 11:51:06;;;;;;;6.92;2.12;;;;;;;24.20;29.81;100499.13;1797983;80;21173;-80
2022/07/02 11:54:12;;;;;;;15.50;2.83;;;;;;;24.22;29.73;100481.53;1798152;80;21799;-80
2022/07/02 11:57:19;;;;;;;8.53;1.98;;;;;;;24.25;29.95;100522.66;1798421;80;21166;-80
2022/07/02 12:00:28;;;;;;;5.83;2.15;;;;;;;24.22;29.52;100507.23;1798653;80;21747;-80
2022/07/02 12:03:33;;;;;;;6.50;1.75;;;;;;;24.19;29.61;100503.59;1798327;80;21248;-80
2022/07/02 12:06:41;;;;;;;11.90;1.60;;;;;;;24.15;29.89;100501.87;1798569;80;21232;-81
2022/07/02 12:09:48;;;;;;;5.22;1.75;;;;;;;24.15;30.16;100503.27;1798868;80;21186;-81
2022/07/02 12:12:54;;;;;;;2.87;1.75;;;;;;;24.16;29.81;100503.55;1798698;80;21253;-81
2022/07/02 12:16:00;;;;;;;7.20;1.95;;;;;;;24.18;29.80;100513.05;1797473;80;21295;-81
2022/07/02 12:19:13;;;;;;;12.00;2.20;;;;;;;24.19;30.29;100511.42;1798074;80;21201;-81
2022/07/02 12:22:19;;;;;;;8.88;2.17;;;;;;;24.26;29.21;100510.36;1797138;80;21217;-81
2022/07/02 12:25:26;;;;;;;7.00;1.45;;;;;;;24.23;29.63;100499.17;1731986;82;21217;-81
2022/07/02 12:31:59;;;;;;;9.33;2.05;;;;;;;24.31;29.64;100503.43;1746891;82;21754;-81
2022/07/02 12:35:07;;;;;;;8.63;1.92;;;;;;;24.35;30.23;100494.81;1746149;82;21229;-80
2022/07/02 12:38:13;;;;;;;3.83;1.60;;;;;;;24.41;30.46;100501.61;1747770;82;21153;-80
2022/07/02 12:41:19;;;;;;;6.80;1.80;;;;;;;24.44;29.61;100504.45;1746828;82;21231;-81
2022/07/02 12:44:28;;;;;;;4.03;1.67;;;;;;;24.42;29.35;100501.92;1746811;82;21239;-80
2022/07/02 12:47:36;;;;;;;8.28;1.70;;;;;;;24.39;29.14;100504.40;1746966;82;21225;-80
2022/07/02 12:50:43;;;;;;;10.03;2.10;;;;;;;24.32;30.02;100496.73;1746876;82;21220;-80
2022/07/02 12:53:50;;;;;;;7.60;2.22;;;;;;;24.31;30.38;100497.84;1747258;82;21181;-80
2022/07/02 12:56:55;;;;;;;5.37;1.57;;;;;;;24.34;30.68;100492.58;1745575;82;21567;-81
2022/07/02 13:00:01;;;;;;;7.80;2.00;;;;;;;24.36;30.61;100495.97;1746741;82;21193;-80
2022/07/02 13:03:13;;;;;;;3.62;1.70;;;;;;;24.36;30.00;100489.50;1746857;82;22347;-80
2022/07/02 13:06:12;;;;;;;7.00;1.75;;;;;;;24.38;30.29;100491.53;1745376;82;21268;-80
2022/07/02 13:09:21;;;;;;;11.65;1.90;;;;;;;24.39;30.02;100485.67;1746857;82;21244;-80
2022/07/02 13:12:27;;;;;;;9.23;1.65;;;;;;;24.35;29.88;100485.03;1746962;82;21217;-81
2022/07/02 13:15:34;;;;;;;16.15;1.70;;;;;;;24.31;30.07;100481.91;1746696;82;21240;-80
2022/07/02 13:18:40;;;;;;;10.05;1.70;;;;;;;24.29;30.50;100477.70;1746960;82;21197;-81
2022/07/02 13:21:49;;;;;;;4.12;1.65;;;;;;;24.28;29.93;100471.80;1746948;82;21206;-81
2022/07/02 13:24:54;;;;;;;10.45;2.37;;;;;;;24.26;30.84;100472.08;1767752;79;21201;-81
2022/07/02 13:27:59;;;;;;;12.07;2.55;;;;;;;24.27;31.00;100475.71;1796915;80;21181;-80
2022/07/02 13:31:06;;;;;;;10.18;2.30;;;;;;;24.26;31.21;100475.42;1796923;80;21185;-81
2022/07/02 13:34:12;;;;;;;4.00;2.00;;;;;;;24.27;30.98;100482.14;1797065;80;21177;-80
2022/07/02 13:37:19;;;;;;;6.75;2.50;;;;;;;24.31;30.74;100483.86;1797168;80;21177;-80
2022/07/02 13:40:25;;;;;;;9.35;1.95;;;;;;;24.31;30.98;100483.30;1798437;80;21173;-81
2022/07/02 13:43:32;;;;;;;9.88;3.17;;;;;;;24.31;30.95;100476.88;1798535;80;21153;-81
2022/07/02 13:46:38;;;;;;;13.22;1.70;;;;;;;24.30;30.57;100483.58;1797706;80;21260;-81
2022/07/02 13:49:43;;;;;;;10.63;2.45;;;;;;;24.20;30.84;100464.75;1798319;80;21221;-80
2022/07/02 13:52:49;;;;;;;14.38;1.90;;;;;;;24.16;30.07;100470.02;1796756;80;21830;-80
2022/07/02 13:55:54;;;;;;;9.65;2.40;;;;;;;24.14;30.43;100483.42;1798398;80;21208;-81
2022/07/02 13:59:01;;;;;;;6.05;1.57;;;;;;;24.12;30.55;100467.45;1797491;80;21787;-80
2022/07/02 14:02:07;;;;;;;9.78;2.27;;;;;;;24.10;31.02;100469.67;1798679;80;21157;-80
2022/07/02 14:05:07;;;;;;;16.27;2.30;;;;;;;24.08;31.26;100462.09;1798421;80;21735;-80
2022/07/02 14:08:00;;;;;;;16.52;2.45;;;;;;;24.08;31.83;100456.50;1797177;80;21260;-80
2022/07/02 14:11:08;;;;;;;6.67;2.12;;;;;;;24.11;31.72;100474.15;1798634;80;21197;-80
2022/07/02 14:14:15;;;;;;;6.92;2.37;;;;;;;24.09;31.68;100456.81;1798195;80;21177;-81
2022/07/02 14:17:21;;;;;;;4.92;1.82;;;;;;;24.06;32.01;100455.94;1797640;80;21753;-81
2022/07/02 14:20:28;;;;;;;12.60;2.30;;;;;;;24.09;32.27;100474.11;1798309;80;21220;-80
2022/07/02 14:23:35;;;;;;;11.57;1.62;;;;;;;24.08;32.13;100456.50;1796863;80;21157;-80
2022/07/02 14:26:42;;;;;;;7.53;1.77;;;;;;;24.07;31.84;100454.82;1796696;79;21216;-80
2022/07/02 14:29:49;;;;;;;6.60;2.35;;;;;;;24.05;31.57;100450.06;1798498;80;21177;-80
2022/07/02 14:32:56;;;;;;;5.92;1.77;;;;;;;24.03;31.65;100449.46;1798392;80;21216;-81
2022/07/02 14:36:04;;;;;;;12.10;1.60;;;;;;;24.05;32.07;100463.19;1797397;80;21216;-80